sensor_id;sensor_type;location;lat;lon;timestamp;P1;durP1;ratioP1;P2;durP2;ratioP2
52946;SDS011;45776;40.400;17.260;2022-09-24T00:00:35;2.75;;;1.08;;
52946;SDS011;45776;40.400;17.260;2022-09-24T00:03:00;3.05;;;1.20;;
52946;SDS011;45776;40.400;17.260;2022-09-24T00:05:26;2.38;;;1.10;;
52946;SDS011;45776;40.400;17.260;2022-09-24T00:07:51;1.65;;;1.13;;
52946;SDS011;45776;40.400;17.260;2022-09-24T00:10:17;2.63;;;1.00;;
52946;SDS011;45776;40.400;17.260;2022-09-24T00:12:42;2.30;;;1.02;;
52946;SDS011;45776;40.400;17.260;2022-09-24T00:15:08;3.13;;;1.42;;
52946;SDS011;45776;40.400;17.260;2022-09-24T00:17:34;3.17;;;1.20;;
52946;SDS011;45776;40.400;17.260;2022-09-24T00:19:59;2.53;;;1.30;;
52946;SDS011;45776;40.400;17.260;2022-09-24T00:22:25;2.55;;;1.30;;
52946;SDS011;45776;40.400;17.260;2022-09-24T00:24:50;2.80;;;1.17;;
52946;SDS011;45776;40.400;17.260;2022-09-24T00:27:34;3.58;;;1.50;;
52946;SDS011;45776;40.400;17.260;2022-09-24T00:30:00;2.60;;;1.33;;
52946;SDS011;45776;40.400;17.260;2022-09-24T00:32:25;2.70;;;1.00;;
52946;SDS011;45776;40.400;17.260;2022-09-24T00:34:51;3.22;;;1.20;;
52946;SDS011;45776;40.400;17.260;2022-09-24T00:37:17;2.40;;;1.02;;
52946;SDS011;45776;40.400;17.260;2022-09-24T00:39:43;2.70;;;1.30;;
52946;SDS011;45776;40.400;17.260;2022-09-24T00:42:10;1.40;;;1.00;;
52946;SDS011;45776;40.400;17.260;2022-09-24T00:52:58;2.72;;;1.52;;
52946;SDS011;45776;40.400;17.260;2022-09-24T00:55:27;8.57;;;3.72;;
52946;SDS011;45776;40.400;17.260;2022-09-24T00:57:55;3.85;;;1.73;;
52946;SDS011;45776;40.400;17.260;2022-09-24T01:00:23;6.35;;;2.17;;
52946;SDS011;45776;40.400;17.260;2022-09-24T01:02:50;3.33;;;1.67;;
52946;SDS011;45776;40.400;17.260;2022-09-24T01:05:20;2.08;;;1.27;;
52946;SDS011;45776;40.400;17.260;2022-09-24T01:07:46;1.42;;;1.17;;
52946;SDS011;45776;40.400;17.260;2022-09-24T01:10:13;2.10;;;1.13;;
52946;SDS011;45776;40.400;17.260;2022-09-24T01:13:02;2.15;;;1.05;;
52946;SDS011;45776;40.400;17.260;2022-09-24T01:15:40;1.95;;;0.85;;
52946;SDS011;45776;40.400;17.260;2022-09-24T01:18:27;1.88;;;1.13;;
52946;SDS011;45776;40.400;17.260;2022-09-24T01:32:03;3.90;;;1.83;;
52946;SDS011;45776;40.400;17.260;2022-09-24T01:34:42;1.50;;;1.10;;
52946;SDS011;45776;40.400;17.260;2022-09-24T01:37:12;1.60;;;1.10;;
52946;SDS011;45776;40.400;17.260;2022-09-24T01:39:41;1.42;;;1.10;;
52946;SDS011;45776;40.400;17.260;2022-09-24T01:42:10;1.33;;;0.90;;
52946;SDS011;45776;40.400;17.260;2022-09-24T01:44:37;2.10;;;1.20;;
52946;SDS011;45776;40.400;17.260;2022-09-24T01:47:08;1.58;;;1.08;;
52946;SDS011;45776;40.400;17.260;2022-09-24T01:49:38;3.47;;;1.30;;
52946;SDS011;45776;40.400;17.260;2022-09-24T01:52:04;1.73;;;0.90;;
52946;SDS011;45776;40.400;17.260;2022-09-24T01:54:36;2.65;;;1.17;;
52946;SDS011;45776;40.400;17.260;2022-09-24T01:57:12;1.80;;;0.90;;
52946;SDS011;45776;40.400;17.260;2022-09-24T01:59:52;1.33;;;0.80;;
52946;SDS011;45776;40.400;17.260;2022-09-24T02:04:49;1.60;;;0.85;;
52946;SDS011;45776;40.400;17.260;2022-09-24T02:07:20;2.03;;;1.10;;
52946;SDS011;45776;40.400;17.260;2022-09-24T02:09:50;2.78;;;1.40;;
52946;SDS011;45776;40.400;17.260;2022-09-24T02:12:17;2.85;;;1.55;;
52946;SDS011;45776;40.400;17.260;2022-09-24T02:14:58;4.78;;;1.98;;
52946;SDS011;45776;40.400;17.260;2022-09-24T02:17:30;2.97;;;1.73;;
52946;SDS011;45776;40.400;17.260;2022-09-24T02:19:59;4.72;;;1.52;;
52946;SDS011;45776;40.400;17.260;2022-09-24T02:22:29;5.05;;;2.00;;
52946;SDS011;45776;40.400;17.260;2022-09-24T02:24:57;3.78;;;2.00;;
52946;SDS011;45776;40.400;17.260;2022-09-24T02:27:24;3.30;;;1.92;;
52946;SDS011;45776;40.400;17.260;2022-09-24T02:29:52;3.35;;;1.73;;
52946;SDS011;45776;40.400;17.260;2022-09-24T02:32:23;3.42;;;1.88;;
52946;SDS011;45776;40.400;17.260;2022-09-24T02:34:53;5.53;;;2.03;;
52946;SDS011;45776;40.400;17.260;2022-09-24T02:37:23;4.60;;;1.95;;
52946;SDS011;45776;40.400;17.260;2022-09-24T02:39:49;2.90;;;1.92;;
52946;SDS011;45776;40.400;17.260;2022-09-24T02:42:15;3.35;;;1.75;;
52946;SDS011;45776;40.400;17.260;2022-09-24T02:44:43;5.63;;;1.85;;
52946;SDS011;45776;40.400;17.260;2022-09-24T02:47:09;2.55;;;1.63;;
52946;SDS011;45776;40.400;17.260;2022-09-24T02:49:34;3.55;;;1.40;;
52946;SDS011;45776;40.400;17.260;2022-09-24T02:52:00;7.20;;;1.92;;
52946;SDS011;45776;40.400;17.260;2022-09-24T02:54:26;7.22;;;2.00;;
52946;SDS011;45776;40.400;17.260;2022-09-24T02:56:52;3.60;;;1.70;;
52946;SDS011;45776;40.400;17.260;2022-09-24T02:59:18;3.42;;;1.90;;
52946;SDS011;45776;40.400;17.260;2022-09-24T03:01:44;3.97;;;1.90;;
52946;SDS011;45776;40.400;17.260;2022-09-24T03:04:09;2.75;;;1.50;;
52946;SDS011;45776;40.400;17.260;2022-09-24T03:06:35;5.95;;;2.00;;
52946;SDS011;45776;40.400;17.260;2022-09-24T03:09:01;4.20;;;1.70;;
52946;SDS011;45776;40.400;17.260;2022-09-24T03:11:27;3.60;;;2.13;;
52946;SDS011;45776;40.400;17.260;2022-09-24T03:13:54;3.80;;;1.70;;
52946;SDS011;45776;40.400;17.260;2022-09-24T03:16:19;3.75;;;2.00;;
52946;SDS011;45776;40.400;17.260;2022-09-24T03:18:45;5.25;;;1.85;;
52946;SDS011;45776;40.400;17.260;2022-09-24T03:21:12;4.97;;;1.58;;
52946;SDS011;45776;40.400;17.260;2022-09-24T03:23:39;2.53;;;1.33;;
52946;SDS011;45776;40.400;17.260;2022-09-24T03:26:05;4.00;;;1.70;;
52946;SDS011;45776;40.400;17.260;2022-09-24T03:28:31;2.58;;;1.60;;
52946;SDS011;45776;40.400;17.260;2022-09-24T03:30:57;3.80;;;1.65;;
52946;SDS011;45776;40.400;17.260;2022-09-24T03:35:56;2.30;;;1.63;;
52946;SDS011;45776;40.400;17.260;2022-09-24T03:38:30;2.92;;;1.52;;
52946;SDS011;45776;40.400;17.260;2022-09-24T03:40:56;2.97;;;1.77;;
52946;SDS011;45776;40.400;17.260;2022-09-24T03:43:22;4.30;;;1.42;;
52946;SDS011;45776;40.400;17.260;2022-09-24T03:45:48;1.58;;;1.10;;
52946;SDS011;45776;40.400;17.260;2022-09-24T03:48:14;4.00;;;1.40;;
52946;SDS011;45776;40.400;17.260;2022-09-24T03:50:43;3.88;;;1.70;;
52946;SDS011;45776;40.400;17.260;2022-09-24T03:53:10;3.47;;;1.50;;
52946;SDS011;45776;40.400;17.260;2022-09-24T03:55:40;5.47;;;1.85;;
52946;SDS011;45776;40.400;17.260;2022-09-24T03:58:07;3.80;;;1.40;;
52946;SDS011;45776;40.400;17.260;2022-09-24T04:00:32;3.60;;;1.50;;
52946;SDS011;45776;40.400;17.260;2022-09-24T04:02:57;2.65;;;1.48;;
52946;SDS011;45776;40.400;17.260;2022-09-24T04:05:23;4.85;;;1.23;;
52946;SDS011;45776;40.400;17.260;2022-09-24T04:07:48;3.50;;;1.40;;
52946;SDS011;45776;40.400;17.260;2022-09-24T04:10:14;3.28;;;1.55;;
52946;SDS011;45776;40.400;17.260;2022-09-24T04:12:39;2.80;;;1.50;;
52946;SDS011;45776;40.400;17.260;2022-09-24T04:15:05;3.63;;;1.50;;
52946;SDS011;45776;40.400;17.260;2022-09-24T04:17:31;2.83;;;1.40;;
52946;SDS011;45776;40.400;17.260;2022-09-24T04:19:56;4.05;;;1.60;;
52946;SDS011;45776;40.400;17.260;2022-09-24T04:22:23;3.17;;;1.33;;
52946;SDS011;45776;40.400;17.260;2022-09-24T04:24:50;5.57;;;2.28;;
52946;SDS011;45776;40.400;17.260;2022-09-24T04:27:15;2.85;;;1.90;;
52946;SDS011;45776;40.400;17.260;2022-09-24T04:29:41;6.07;;;3.03;;
52946;SDS011;45776;40.400;17.260;2022-09-24T04:32:06;5.78;;;2.10;;
52946;SDS011;45776;40.400;17.260;2022-09-24T04:34:32;3.25;;;1.58;;
52946;SDS011;45776;40.400;17.260;2022-09-24T04:36:57;4.85;;;1.80;;
52946;SDS011;45776;40.400;17.260;2022-09-24T04:39:23;4.45;;;1.70;;
52946;SDS011;45776;40.400;17.260;2022-09-24T04:41:51;3.80;;;1.83;;
52946;SDS011;45776;40.400;17.260;2022-09-24T04:44:17;4.88;;;2.00;;
52946;SDS011;45776;40.400;17.260;2022-09-24T04:46:42;3.75;;;1.60;;
52946;SDS011;45776;40.400;17.260;2022-09-24T04:49:08;3.33;;;1.58;;
52946;SDS011;45776;40.400;17.260;2022-09-24T04:51:34;3.97;;;1.52;;
52946;SDS011;45776;40.400;17.260;2022-09-24T04:53:59;4.45;;;1.75;;
52946;SDS011;45776;40.400;17.260;2022-09-24T04:56:28;3.40;;;1.60;;
52946;SDS011;45776;40.400;17.260;2022-09-24T04:58:55;6.20;;;2.10;;
52946;SDS011;45776;40.400;17.260;2022-09-24T05:01:21;4.70;;;2.03;;
52946;SDS011;45776;40.400;17.260;2022-09-24T05:03:47;4.60;;;1.50;;
52946;SDS011;45776;40.400;17.260;2022-09-24T05:06:13;3.05;;;1.55;;
52946;SDS011;45776;40.400;17.260;2022-09-24T05:08:39;5.68;;;1.70;;
52946;SDS011;45776;40.400;17.260;2022-09-24T05:11:04;2.10;;;1.20;;
52946;SDS011;45776;40.400;17.260;2022-09-24T05:13:30;3.53;;;1.40;;
52946;SDS011;45776;40.400;17.260;2022-09-24T05:15:55;3.45;;;1.33;;
52946;SDS011;45776;40.400;17.260;2022-09-24T05:18:24;2.95;;;1.55;;
52946;SDS011;45776;40.400;17.260;2022-09-24T05:20:50;2.50;;;1.40;;
52946;SDS011;45776;40.400;17.260;2022-09-24T05:23:16;5.38;;;1.90;;
52946;SDS011;45776;40.400;17.260;2022-09-24T05:25:42;5.93;;;1.63;;
52946;SDS011;45776;40.400;17.260;2022-09-24T05:28:25;4.35;;;1.83;;
52946;SDS011;45776;40.400;17.260;2022-09-24T05:30:55;2.17;;;1.50;;
52946;SDS011;45776;40.400;17.260;2022-09-24T05:33:21;3.92;;;1.90;;
52946;SDS011;45776;40.400;17.260;2022-09-24T05:35:51;5.57;;;1.35;;
52946;SDS011;45776;40.400;17.260;2022-09-24T05:38:22;4.07;;;1.80;;
52946;SDS011;45776;40.400;17.260;2022-09-24T05:40:48;5.00;;;1.80;;
52946;SDS011;45776;40.400;17.260;2022-09-24T05:43:14;4.45;;;2.28;;
52946;SDS011;45776;40.400;17.260;2022-09-24T05:45:43;4.43;;;2.55;;
52946;SDS011;45776;40.400;17.260;2022-09-24T05:48:13;10.05;;;4.38;;
52946;SDS011;45776;40.400;17.260;2022-09-24T05:50:38;10.13;;;5.18;;
52946;SDS011;45776;40.400;17.260;2022-09-24T05:53:04;14.20;;;7.28;;
52946;SDS011;45776;40.400;17.260;2022-09-24T05:55:30;20.45;;;9.43;;
52946;SDS011;45776;40.400;17.260;2022-09-24T05:58:01;24.00;;;9.80;;
52946;SDS011;45776;40.400;17.260;2022-09-24T06:00:27;40.65;;;14.98;;
52946;SDS011;45776;40.400;17.260;2022-09-24T06:02:53;35.60;;;14.80;;
52946;SDS011;45776;40.400;17.260;2022-09-24T06:05:18;27.80;;;11.23;;
52946;SDS011;45776;40.400;17.260;2022-09-24T06:07:44;23.55;;;10.43;;
52946;SDS011;45776;40.400;17.260;2022-09-24T06:10:09;18.38;;;8.75;;
52946;SDS011;45776;40.400;17.260;2022-09-24T06:12:35;26.30;;;10.00;;
52946;SDS011;45776;40.400;17.260;2022-09-24T06:15:01;20.95;;;8.02;;
52946;SDS011;45776;40.400;17.260;2022-09-24T06:17:26;22.63;;;8.93;;
52946;SDS011;45776;40.400;17.260;2022-09-24T06:19:52;15.55;;;6.95;;
52946;SDS011;45776;40.400;17.260;2022-09-24T06:22:18;20.33;;;6.20;;
52946;SDS011;45776;40.400;17.260;2022-09-24T06:24:45;15.23;;;4.63;;
52946;SDS011;45776;40.400;17.260;2022-09-24T06:27:10;15.70;;;3.97;;
52946;SDS011;45776;40.400;17.260;2022-09-24T06:29:36;9.35;;;3.58;;
52946;SDS011;45776;40.400;17.260;2022-09-24T06:32:01;6.90;;;2.67;;
52946;SDS011;45776;40.400;17.260;2022-09-24T06:34:27;7.63;;;2.60;;
52946;SDS011;45776;40.400;17.260;2022-09-24T06:36:53;4.70;;;2.10;;
52946;SDS011;45776;40.400;17.260;2022-09-24T06:39:19;8.32;;;2.30;;
52946;SDS011;45776;40.400;17.260;2022-09-24T06:41:46;5.15;;;2.03;;
52946;SDS011;45776;40.400;17.260;2022-09-24T06:44:13;7.85;;;2.13;;
52946;SDS011;45776;40.400;17.260;2022-09-24T06:46:39;7.60;;;2.22;;
52946;SDS011;45776;40.400;17.260;2022-09-24T06:49:04;3.78;;;1.75;;
52946;SDS011;45776;40.400;17.260;2022-09-24T06:51:30;2.33;;;1.48;;
52946;SDS011;45776;40.400;17.260;2022-09-24T06:53:55;2.78;;;1.38;;
52946;SDS011;45776;40.400;17.260;2022-09-24T06:56:21;3.58;;;1.40;;
52946;SDS011;45776;40.400;17.260;2022-09-24T06:58:46;3.17;;;1.63;;
52946;SDS011;45776;40.400;17.260;2022-09-24T07:01:12;4.75;;;1.70;;
52946;SDS011;45776;40.400;17.260;2022-09-24T07:03:37;5.53;;;1.45;;
52946;SDS011;45776;40.400;17.260;2022-09-24T07:06:04;4.10;;;1.20;;
52946;SDS011;45776;40.400;17.260;2022-09-24T07:08:30;3.03;;;1.75;;
52946;SDS011;45776;40.400;17.260;2022-09-24T07:10:56;3.33;;;1.58;;
52946;SDS011;45776;40.400;17.260;2022-09-24T07:13:22;4.00;;;1.77;;
52946;SDS011;45776;40.400;17.260;2022-09-24T07:15:48;8.85;;;2.15;;
52946;SDS011;45776;40.400;17.260;2022-09-24T07:18:15;6.78;;;2.17;;
52946;SDS011;45776;40.400;17.260;2022-09-24T07:20:41;4.38;;;2.00;;
52946;SDS011;45776;40.400;17.260;2022-09-24T07:23:07;5.65;;;2.33;;
52946;SDS011;45776;40.400;17.260;2022-09-24T07:25:34;4.22;;;1.80;;
52946;SDS011;45776;40.400;17.260;2022-09-24T07:28:04;3.08;;;1.35;;
52946;SDS011;45776;40.400;17.260;2022-09-24T07:30:32;3.95;;;1.30;;
52946;SDS011;45776;40.400;17.260;2022-09-24T07:32:58;3.13;;;1.30;;
52946;SDS011;45776;40.400;17.260;2022-09-24T07:35:24;2.67;;;1.10;;
52946;SDS011;45776;40.400;17.260;2022-09-24T07:37:58;2.45;;;1.25;;
52946;SDS011;45776;40.400;17.260;2022-09-24T07:40:28;2.42;;;1.40;;
52946;SDS011;45776;40.400;17.260;2022-09-24T07:42:55;3.03;;;1.55;;
52946;SDS011;45776;40.400;17.260;2022-09-24T07:45:21;2.35;;;1.15;;
52946;SDS011;45776;40.400;17.260;2022-09-24T07:47:54;3.05;;;1.30;;
52946;SDS011;45776;40.400;17.260;2022-09-24T07:50:21;1.48;;;1.10;;
52946;SDS011;45776;40.400;17.260;2022-09-24T07:52:50;3.55;;;1.40;;
52946;SDS011;45776;40.400;17.260;2022-09-24T07:55:15;2.88;;;1.10;;
52946;SDS011;45776;40.400;17.260;2022-09-24T07:57:45;1.27;;;0.98;;
52946;SDS011;45776;40.400;17.260;2022-09-24T08:00:12;2.33;;;1.10;;
52946;SDS011;45776;40.400;17.260;2022-09-24T08:02:38;1.70;;;1.05;;
52946;SDS011;45776;40.400;17.260;2022-09-24T08:05:04;3.13;;;1.13;;
52946;SDS011;45776;40.400;17.260;2022-09-24T08:07:29;3.05;;;1.10;;
52946;SDS011;45776;40.400;17.260;2022-09-24T08:09:55;2.25;;;1.00;;
52946;SDS011;45776;40.400;17.260;2022-09-24T08:12:20;1.58;;;1.10;;
52946;SDS011;45776;40.400;17.260;2022-09-24T08:14:51;3.90;;;1.27;;
52946;SDS011;45776;40.400;17.260;2022-09-24T08:17:16;1.85;;;1.17;;
52946;SDS011;45776;40.400;17.260;2022-09-24T08:19:41;3.17;;;1.30;;
52946;SDS011;45776;40.400;17.260;2022-09-24T08:22:07;3.22;;;1.40;;
52946;SDS011;45776;40.400;17.260;2022-09-24T08:24:33;1.20;;;1.00;;
52946;SDS011;45776;40.400;17.260;2022-09-24T08:26:58;1.85;;;1.00;;
52946;SDS011;45776;40.400;17.260;2022-09-24T08:29:24;3.75;;;1.13;;
52946;SDS011;45776;40.400;17.260;2022-09-24T08:31:49;2.80;;;1.30;;
52946;SDS011;45776;40.400;17.260;2022-09-24T08:34:15;3.17;;;1.38;;
52946;SDS011;45776;40.400;17.260;2022-09-24T08:36:40;1.73;;;0.95;;
52946;SDS011;45776;40.400;17.260;2022-09-24T08:39:06;2.53;;;1.30;;
52946;SDS011;45776;40.400;17.260;2022-09-24T08:41:54;2.50;;;1.40;;
52946;SDS011;45776;40.400;17.260;2022-09-24T08:47:28;3.58;;;1.25;;
52946;SDS011;45776;40.400;17.260;2022-09-24T08:50:12;2.78;;;1.15;;
52946;SDS011;45776;40.400;17.260;2022-09-24T08:55:38;2.47;;;1.33;;
52946;SDS011;45776;40.400;17.260;2022-09-24T09:00:35;3.20;;;1.17;;
52946;SDS011;45776;40.400;17.260;2022-09-24T09:03:11;4.30;;;1.15;;
52946;SDS011;45776;40.400;17.260;2022-09-24T09:06:09;1.95;;;1.30;;
52946;SDS011;45776;40.400;17.260;2022-09-24T09:11:19;1.83;;;1.10;;
52946;SDS011;45776;40.400;17.260;2022-09-24T09:13:55;2.92;;;1.08;;
52946;SDS011;45776;40.400;17.260;2022-09-24T09:16:45;1.55;;;1.30;;
52946;SDS011;45776;40.400;17.260;2022-09-24T09:19:16;3.22;;;1.17;;
52946;SDS011;45776;40.400;17.260;2022-09-24T09:21:47;1.48;;;1.27;;
52946;SDS011;45776;40.400;17.260;2022-09-24T09:24:25;2.08;;;0.93;;
52946;SDS011;45776;40.400;17.260;2022-09-24T09:27:04;2.10;;;1.30;;
52946;SDS011;45776;40.400;17.260;2022-09-24T09:29:36;2.42;;;1.27;;
52946;SDS011;45776;40.400;17.260;2022-09-24T09:32:13;4.28;;;1.35;;
52946;SDS011;45776;40.400;17.260;2022-09-24T09:37:38;2.55;;;1.30;;
52946;SDS011;45776;40.400;17.260;2022-09-24T09:42:43;2.58;;;1.20;;
52946;SDS011;45776;40.400;17.260;2022-09-24T09:45:17;1.17;;;0.98;;
52946;SDS011;45776;40.400;17.260;2022-09-24T09:47:52;3.25;;;0.90;;
52946;SDS011;45776;40.400;17.260;2022-09-24T09:50:36;2.60;;;1.05;;
52946;SDS011;45776;40.400;17.260;2022-09-24T09:53:16;2.28;;;1.00;;
52946;SDS011;45776;40.400;17.260;2022-09-24T09:55:51;2.38;;;1.00;;
52946;SDS011;45776;40.400;17.260;2022-09-24T09:58:26;1.60;;;0.90;;
52946;SDS011;45776;40.400;17.260;2022-09-24T10:01:08;1.20;;;1.00;;
52946;SDS011;45776;40.400;17.260;2022-09-24T10:06:08;1.02;;;0.93;;
52946;SDS011;45776;40.400;17.260;2022-09-24T10:08:36;2.08;;;1.30;;
52946;SDS011;45776;40.400;17.260;2022-09-24T10:11:02;1.85;;;0.98;;
52946;SDS011;45776;40.400;17.260;2022-09-24T10:13:29;4.50;;;1.08;;
52946;SDS011;45776;40.400;17.260;2022-09-24T10:15:56;3.15;;;1.08;;
52946;SDS011;45776;40.400;17.260;2022-09-24T10:20:58;2.08;;;1.10;;
52946;SDS011;45776;40.400;17.260;2022-09-24T10:23:49;1.33;;;1.00;;
52946;SDS011;45776;40.400;17.260;2022-09-24T10:26:14;1.83;;;1.20;;
52946;SDS011;45776;40.400;17.260;2022-09-24T10:28:49;1.75;;;1.27;;
52946;SDS011;45776;40.400;17.260;2022-09-24T10:31:36;1.40;;;1.10;;
52946;SDS011;45776;40.400;17.260;2022-09-24T10:34:04;1.83;;;0.93;;
52946;SDS011;45776;40.400;17.260;2022-09-24T10:37:02;1.83;;;1.00;;
52946;SDS011;45776;40.400;17.260;2022-09-24T10:39:36;1.83;;;1.40;;
52946;SDS011;45776;40.400;17.260;2022-09-24T10:42:02;2.53;;;1.40;;
52946;SDS011;45776;40.400;17.260;2022-09-24T10:44:32;1.30;;;1.00;;
52946;SDS011;45776;40.400;17.260;2022-09-24T10:55:02;2.85;;;1.50;;
52946;SDS011;45776;40.400;17.260;2022-09-24T11:00:20;1.35;;;1.00;;
52946;SDS011;45776;40.400;17.260;2022-09-24T11:05:23;2.28;;;1.30;;
52946;SDS011;45776;40.400;17.260;2022-09-24T11:08:06;1.30;;;1.20;;
52946;SDS011;45776;40.400;17.260;2022-09-24T11:13:40;2.58;;;1.13;;
52946;SDS011;45776;40.400;17.260;2022-09-24T11:19:35;1.67;;;1.27;;
52946;SDS011;45776;40.400;17.260;2022-09-24T11:30:13;3.00;;;1.10;;
52946;SDS011;45776;40.400;17.260;2022-09-24T11:32:52;2.70;;;1.15;;
52946;SDS011;45776;40.400;17.260;2022-09-24T11:43:22;2.38;;;1.00;;
52946;SDS011;45776;40.400;17.260;2022-09-24T11:54:01;1.83;;;1.10;;
52946;SDS011;45776;40.400;17.260;2022-09-24T11:56:35;3.85;;;1.25;;
52946;SDS011;45776;40.400;17.260;2022-09-24T12:02:25;1.27;;;1.00;;
52946;SDS011;45776;40.400;17.260;2022-09-24T12:07:24;3.60;;;0.98;;
52946;SDS011;45776;40.400;17.260;2022-09-24T12:09:58;2.20;;;1.25;;
52946;SDS011;45776;40.400;17.260;2022-09-24T12:12:32;1.93;;;1.20;;
52946;SDS011;45776;40.400;17.260;2022-09-24T12:20:59;3.30;;;1.05;;
52946;SDS011;45776;40.400;17.260;2022-09-24T12:23:31;2.28;;;1.15;;
52946;SDS011;45776;40.400;17.260;2022-09-24T12:26:03;1.30;;;0.93;;
52946;SDS011;45776;40.400;17.260;2022-09-24T12:29:18;2.13;;;1.10;;
52946;SDS011;45776;40.400;17.260;2022-09-24T12:34:43;1.98;;;0.93;;
52946;SDS011;45776;40.400;17.260;2022-09-24T12:37:17;3.00;;;1.00;;
52946;SDS011;45776;40.400;17.260;2022-09-24T12:42:35;4.03;;;1.33;;
52946;SDS011;45776;40.400;17.260;2022-09-24T12:45:06;1.42;;;1.00;;
52946;SDS011;45776;40.400;17.260;2022-09-24T12:48:00;1.95;;;0.80;;
52946;SDS011;45776;40.400;17.260;2022-09-24T12:50:27;1.77;;;1.33;;
52946;SDS011;45776;40.400;17.260;2022-09-24T12:52:55;3.00;;;1.10;;
52946;SDS011;45776;40.400;17.260;2022-09-24T12:55:22;1.58;;;1.00;;
52946;SDS011;45776;40.400;17.260;2022-09-24T12:58:04;2.42;;;0.80;;
52946;SDS011;45776;40.400;17.260;2022-09-24T13:05:59;1.90;;;1.10;;
52946;SDS011;45776;40.400;17.260;2022-09-24T13:08:25;3.15;;;0.82;;
52946;SDS011;45776;40.400;17.260;2022-09-24T13:11:01;2.28;;;0.90;;
52946;SDS011;45776;40.400;17.260;2022-09-24T13:13:36;2.17;;;0.80;;
52946;SDS011;45776;40.400;17.260;2022-09-24T13:16:15;1.88;;;0.70;;
52946;SDS011;45776;40.400;17.260;2022-09-24T13:18:50;1.65;;;0.82;;
52946;SDS011;45776;40.400;17.260;2022-09-24T13:21:19;1.25;;;0.80;;
52946;SDS011;45776;40.400;17.260;2022-09-24T13:23:48;0.80;;;0.73;;
52946;SDS011;45776;40.400;17.260;2022-09-24T13:28:50;1.48;;;0.73;;
52946;SDS011;45776;40.400;17.260;2022-09-24T13:31:43;1.00;;;0.60;;
52946;SDS011;45776;40.400;17.260;2022-09-24T13:42:30;2.70;;;0.90;;
52946;SDS011;45776;40.400;17.260;2022-09-24T13:45:05;1.38;;;0.80;;
52946;SDS011;45776;40.400;17.260;2022-09-24T13:47:44;1.65;;;0.75;;
52946;SDS011;45776;40.400;17.260;2022-09-24T13:50:18;2.05;;;1.00;;
52946;SDS011;45776;40.400;17.260;2022-09-24T13:53:01;2.45;;;0.70;;
52946;SDS011;45776;40.400;17.260;2022-09-24T13:55:51;1.70;;;0.90;;
52946;SDS011;45776;40.400;17.260;2022-09-24T13:58:35;1.20;;;0.73;;
52946;SDS011;45776;40.400;17.260;2022-09-24T14:01:20;1.95;;;0.82;;
52946;SDS011;45776;40.400;17.260;2022-09-24T14:04:00;1.45;;;0.95;;
52946;SDS011;45776;40.400;17.260;2022-09-24T14:06:39;1.45;;;1.00;;
52946;SDS011;45776;40.400;17.260;2022-09-24T14:09:40;0.80;;;0.68;;
52946;SDS011;45776;40.400;17.260;2022-09-24T14:12:01;1.70;;;0.75;;
52946;SDS011;45776;40.400;17.260;2022-09-24T14:14:44;2.80;;;0.75;;
52946;SDS011;45776;40.400;17.260;2022-09-24T14:17:14;1.02;;;0.77;;
52946;SDS011;45776;40.400;17.260;2022-09-24T14:19:40;1.30;;;0.80;;
52946;SDS011;45776;40.400;17.260;2022-09-24T14:22:18;1.73;;;0.77;;
52946;SDS011;45776;40.400;17.260;2022-09-24T14:24:51;0.88;;;0.70;;
52946;SDS011;45776;40.400;17.260;2022-09-24T14:27:21;2.00;;;1.00;;
52946;SDS011;45776;40.400;17.260;2022-09-24T14:34:54;2.50;;;0.90;;
52946;SDS011;45776;40.400;17.260;2022-09-24T14:37:32;1.48;;;0.70;;
52946;SDS011;45776;40.400;17.260;2022-09-24T14:40:10;2.25;;;0.90;;
52946;SDS011;45776;40.400;17.260;2022-09-24T14:45:18;1.85;;;0.80;;
52946;SDS011;45776;40.400;17.260;2022-09-24T14:48:01;0.85;;;0.70;;
52946;SDS011;45776;40.400;17.260;2022-09-24T14:50:41;1.17;;;0.85;;
52946;SDS011;45776;40.400;17.260;2022-09-24T14:53:26;2.90;;;1.17;;
52946;SDS011;45776;40.400;17.260;2022-09-24T14:55:54;1.27;;;0.98;;
52946;SDS011;45776;40.400;17.260;2022-09-24T14:58:38;1.58;;;1.10;;
52946;SDS011;45776;40.400;17.260;2022-09-24T15:01:04;1.02;;;0.80;;
52946;SDS011;45776;40.400;17.260;2022-09-24T15:03:46;1.63;;;0.93;;
52946;SDS011;45776;40.400;17.260;2022-09-24T15:08:50;1.50;;;0.82;;
52946;SDS011;45776;40.400;17.260;2022-09-24T15:11:30;1.50;;;0.70;;
52946;SDS011;45776;40.400;17.260;2022-09-24T15:16:28;2.22;;;0.80;;
52946;SDS011;45776;40.400;17.260;2022-09-24T15:21:32;1.90;;;0.70;;
52946;SDS011;45776;40.400;17.260;2022-09-24T15:23:58;1.83;;;1.00;;
52946;SDS011;45776;40.400;17.260;2022-09-24T15:26:27;1.40;;;0.70;;
52946;SDS011;45776;40.400;17.260;2022-09-24T15:28:58;3.10;;;1.00;;
52946;SDS011;45776;40.400;17.260;2022-09-24T15:31:25;0.98;;;0.88;;
52946;SDS011;45776;40.400;17.260;2022-09-24T15:33:51;1.45;;;0.93;;
52946;SDS011;45776;40.400;17.260;2022-09-24T15:36:17;1.40;;;0.70;;
52946;SDS011;45776;40.400;17.260;2022-09-24T15:38:47;1.08;;;0.70;;
52946;SDS011;45776;40.400;17.260;2022-09-24T15:41:16;2.13;;;0.70;;
52946;SDS011;45776;40.400;17.260;2022-09-24T15:43:43;5.60;;;1.00;;
52946;SDS011;45776;40.400;17.260;2022-09-24T15:46:10;2.65;;;0.95;;
52946;SDS011;45776;40.400;17.260;2022-09-24T15:48:35;1.45;;;0.85;;
52946;SDS011;45776;40.400;17.260;2022-09-24T15:51:02;2.25;;;1.20;;
52946;SDS011;45776;40.400;17.260;2022-09-24T15:53:28;1.70;;;0.93;;
52946;SDS011;45776;40.400;17.260;2022-09-24T15:55:56;1.88;;;0.80;;
52946;SDS011;45776;40.400;17.260;2022-09-24T15:58:23;2.53;;;0.88;;
52946;SDS011;45776;40.400;17.260;2022-09-24T16:00:49;1.40;;;1.00;;
52946;SDS011;45776;40.400;17.260;2022-09-24T16:03:25;3.72;;;1.05;;
52946;SDS011;45776;40.400;17.260;2022-09-24T16:05:52;0.98;;;0.70;;
52946;SDS011;45776;40.400;17.260;2022-09-24T16:08:18;1.90;;;1.35;;
52946;SDS011;45776;40.400;17.260;2022-09-24T16:10:44;1.52;;;1.00;;
52946;SDS011;45776;40.400;17.260;2022-09-24T16:13:11;2.95;;;0.95;;
52946;SDS011;45776;40.400;17.260;2022-09-24T16:15:37;2.38;;;1.08;;
52946;SDS011;45776;40.400;17.260;2022-09-24T16:18:03;1.05;;;0.90;;
52946;SDS011;45776;40.400;17.260;2022-09-24T16:20:29;2.50;;;1.13;;
52946;SDS011;45776;40.400;17.260;2022-09-24T16:22:55;2.35;;;1.13;;
52946;SDS011;45776;40.400;17.260;2022-09-24T16:25:20;3.72;;;1.00;;
52946;SDS011;45776;40.400;17.260;2022-09-24T16:27:46;4.13;;;0.98;;
52946;SDS011;45776;40.400;17.260;2022-09-24T16:30:12;2.25;;;1.15;;
52946;SDS011;45776;40.400;17.260;2022-09-24T16:32:38;1.50;;;0.88;;
52946;SDS011;45776;40.400;17.260;2022-09-24T16:35:03;1.58;;;1.10;;
52946;SDS011;45776;40.400;17.260;2022-09-24T16:37:30;2.55;;;1.30;;
52946;SDS011;45776;40.400;17.260;2022-09-24T16:39:55;3.05;;;1.10;;
52946;SDS011;45776;40.400;17.260;2022-09-24T16:42:21;3.25;;;1.25;;
52946;SDS011;45776;40.400;17.260;2022-09-24T16:44:50;2.88;;;0.98;;
52946;SDS011;45776;40.400;17.260;2022-09-24T16:47:15;1.73;;;0.82;;
52946;SDS011;45776;40.400;17.260;2022-09-24T16:49:42;1.75;;;0.90;;
52946;SDS011;45776;40.400;17.260;2022-09-24T16:52:08;2.78;;;0.95;;
52946;SDS011;45776;40.400;17.260;2022-09-24T16:54:34;1.75;;;1.00;;
52946;SDS011;45776;40.400;17.260;2022-09-24T16:56:59;2.63;;;1.02;;
52946;SDS011;45776;40.400;17.260;2022-09-24T16:59:27;2.70;;;1.17;;
52946;SDS011;45776;40.400;17.260;2022-09-24T17:01:52;1.80;;;1.02;;
52946;SDS011;45776;40.400;17.260;2022-09-24T17:04:18;2.70;;;0.98;;
52946;SDS011;45776;40.400;17.260;2022-09-24T17:06:44;1.13;;;0.88;;